createdAt,value
2019-04-03T00:00:08.635Z,6.77
2019-04-03T00:02:37.017Z,5.30
2019-04-03T00:05:06.415Z,5.00
2019-04-03T00:07:35.877Z,5.07
2019-04-03T00:10:06.629Z,5.30
2019-04-03T00:12:35.332Z,5.27
2019-04-03T00:15:04.644Z,6.23
2019-04-03T00:17:32.585Z,6.17
2019-04-03T00:20:00.585Z,4.70
2019-04-03T00:22:28.638Z,4.50
2019-04-03T00:24:56.666Z,5.00
2019-04-03T00:27:24.518Z,5.27
2019-04-03T00:29:52.682Z,6.17
2019-04-03T00:32:21.725Z,8.80
2019-04-03T00:34:51.691Z,5.47
2019-04-03T00:37:21.536Z,6.93
2019-04-03T00:39:50.266Z,5.83
2019-04-03T00:42:18.163Z,5.40
2019-04-03T00:44:46.283Z,5.63
2019-04-03T00:47:14.316Z,4.40
2019-04-03T00:49:42.291Z,4.90
2019-04-03T00:52:10.281Z,4.67
2019-04-03T00:54:38.222Z,5.30
2019-04-03T00:57:06.168Z,4.97
2019-04-03T00:59:34.415Z,5.23
2019-04-03T01:02:02.598Z,5.97
2019-04-03T01:04:30.709Z,5.03
2019-04-03T01:06:59.153Z,4.47
2019-04-03T01:09:29.230Z,5.22
2019-04-03T01:11:57.072Z,4.03
2019-04-03T01:14:25.001Z,5.60
2019-04-03T01:16:52.920Z,6.00
2019-04-03T01:19:20.893Z,4.97
2019-04-03T01:21:48.844Z,6.00
2019-04-03T01:24:16.809Z,5.10
2019-04-03T01:26:44.748Z,5.83
2019-04-03T01:29:12.959Z,5.77
2019-04-03T01:31:40.827Z,5.97
2019-04-03T01:34:08.749Z,5.90
2019-04-03T01:36:36.668Z,7.07
2019-04-03T01:39:06.756Z,5.10
2019-04-03T01:41:35.060Z,7.13
2019-04-03T01:44:02.987Z,6.17
2019-04-03T01:46:31.071Z,5.20
2019-04-03T01:48:59.033Z,5.40
2019-04-03T01:51:29.122Z,5.13
2019-04-03T01:53:56.731Z,4.63
2019-04-03T01:56:24.818Z,6.70
2019-04-03T01:58:52.698Z,5.43
2019-04-03T02:01:20.664Z,4.40
2019-04-03T02:03:48.593Z,4.97
2019-04-03T02:06:16.552Z,7.60
2019-04-03T02:08:45.295Z,5.10
2019-04-03T02:11:13.448Z,5.10
2019-04-03T02:13:41.385Z,5.20
2019-04-03T02:16:09.386Z,5.60
2019-04-03T02:18:37.379Z,5.90
2019-04-03T02:21:05.239Z,5.87
2019-04-03T02:23:33.120Z,7.17
2019-04-03T02:26:02.403Z,5.20
2019-04-03T02:28:31.021Z,7.97
2019-04-03T02:30:58.893Z,5.87
2019-04-03T02:33:28.931Z,6.78
2019-04-03T02:35:56.580Z,7.40
2019-04-03T02:38:24.530Z,6.05
2019-04-03T02:40:52.689Z,5.55
2019-04-03T02:43:20.985Z,5.83
2019-04-03T02:45:49.161Z,6.20
2019-04-03T02:48:17.123Z,5.80
2019-04-03T02:50:47.565Z,7.70
2019-04-03T02:53:15.220Z,7.47
2019-04-03T02:55:43.150Z,7.10
2019-04-03T02:58:11.203Z,9.30
2019-04-03T03:00:39.235Z,5.97
2019-04-03T03:03:07.471Z,6.47
2019-04-03T03:05:35.463Z,6.30
2019-04-03T03:08:03.612Z,5.50
2019-04-03T03:10:32.528Z,6.17
2019-04-03T03:13:02.244Z,6.87
2019-04-03T03:15:30.636Z,6.15
2019-04-03T03:17:59.716Z,5.67
2019-04-03T03:20:28.780Z,6.72
2019-04-03T03:22:57.469Z,6.05
2019-04-03T03:25:25.935Z,6.00
2019-04-03T03:27:54.058Z,7.33
2019-04-03T03:30:40.078Z,6.75
2019-04-03T03:33:19.325Z,6.50
2019-04-03T03:35:29.228Z,6.85
2019-04-03T03:37:52.599Z,6.00
2019-04-03T03:40:20.824Z,4.90
2019-04-03T03:42:49.730Z,6.12
2019-04-03T03:45:21.028Z,7.37
2019-04-03T03:47:50.579Z,8.65
2019-04-03T03:50:25.932Z,6.97
2019-04-03T03:52:54.343Z,7.10
2019-04-03T03:55:24.796Z,8.00
2019-04-03T03:57:53.446Z,6.80
2019-04-03T04:00:23.622Z,7.55
2019-04-03T04:02:51.205Z,6.30
2019-04-03T04:05:21.396Z,6.05
2019-04-03T04:07:49.339Z,6.15
2019-04-03T04:10:17.655Z,9.98
2019-04-03T04:12:46.556Z,8.18
2019-04-03T04:15:14.683Z,6.87
2019-04-03T04:17:43.846Z,8.35
2019-04-03T04:20:11.911Z,11.68
2019-04-03T04:22:39.911Z,8.40
2019-04-03T04:25:07.841Z,6.78
2019-04-03T04:27:38.569Z,6.92
2019-04-03T04:30:06.207Z,8.80
2019-04-03T04:32:35.992Z,8.60
2019-04-03T04:35:04.340Z,11.10
2019-04-03T04:37:32.324Z,8.03
2019-04-03T04:40:00.324Z,8.28
2019-04-03T04:42:28.245Z,7.83
2019-04-03T04:44:56.127Z,9.30
2019-04-03T04:47:24.113Z,8.68
2019-04-03T04:49:53.598Z,9.65
2019-04-03T04:52:22.229Z,12.53
2019-04-03T04:54:50.445Z,16.45
2019-04-03T04:57:18.574Z,13.08
2019-04-03T04:59:46.546Z,11.35
2019-04-03T05:02:14.474Z,10.08
2019-04-03T05:04:42.436Z,10.05
2019-04-03T05:07:10.392Z,10.80
2019-04-03T05:09:39.329Z,10.55
2019-04-03T05:12:09.441Z,9.60
2019-04-03T05:14:37.229Z,9.70
2019-04-03T05:17:05.236Z,10.55
2019-04-03T05:19:33.151Z,9.90
2019-04-03T05:22:01.099Z,8.35
2019-04-03T05:24:29.538Z,10.82
2019-04-03T05:26:57.877Z,9.50
2019-04-03T05:29:26.152Z,8.20
2019-04-03T05:31:56.167Z,14.20
2019-04-03T05:34:24.441Z,15.08
2019-04-03T05:36:52.322Z,12.13
2019-04-03T05:39:20.416Z,12.78
2019-04-03T05:41:48.343Z,9.90
2019-04-03T05:44:16.637Z,9.53
2019-04-03T05:46:44.596Z,9.20
2019-04-03T05:49:12.468Z,11.18
2019-04-03T05:51:40.492Z,8.48
2019-04-03T05:54:08.532Z,8.05
2019-04-03T05:56:36.455Z,8.47
2019-04-03T05:59:04.419Z,9.68
2019-04-03T06:01:32.456Z,7.13
2019-04-03T06:04:03.186Z,8.80
2019-04-03T06:06:31.476Z,8.87
2019-04-03T06:08:59.409Z,11.47
2019-04-03T06:11:27.517Z,8.50
2019-04-03T06:13:55.484Z,8.53
2019-04-03T06:16:24.807Z,11.50
2019-04-03T06:18:53.068Z,10.33
2019-04-03T06:21:21.194Z,7.73
2019-04-03T06:23:49.118Z,9.83
2019-04-03T06:26:17.141Z,10.20
2019-04-03T06:28:47.671Z,9.33
2019-04-03T06:31:15.118Z,8.70
2019-04-03T06:33:44.400Z,6.30
2019-04-03T06:36:12.383Z,7.07
2019-04-03T06:38:40.458Z,9.73
2019-04-03T06:41:09.133Z,13.70
2019-04-03T06:43:37.448Z,8.43
2019-04-03T06:46:05.833Z,8.10
2019-04-03T06:48:34.585Z,8.10
2019-04-03T06:51:03.626Z,8.53
2019-04-03T06:53:31.640Z,7.10
2019-04-03T06:55:59.624Z,8.27
2019-04-03T06:58:37.249Z,8.25
2019-04-03T07:00:57.611Z,8.03
2019-04-03T07:03:26.367Z,7.40
2019-04-03T07:05:54.417Z,8.30
2019-04-03T07:08:30.107Z,7.70
2019-04-03T07:10:55.615Z,9.23
2019-04-03T07:13:22.413Z,7.67
2019-04-03T07:15:50.636Z,8.10
2019-04-03T07:18:18.674Z,9.27
2019-04-03T07:20:46.575Z,8.70
2019-04-03T07:23:14.929Z,8.83
2019-04-03T07:25:43.202Z,9.30
2019-04-03T07:28:11.244Z,6.57
2019-04-03T07:30:39.168Z,6.37
2019-04-03T07:33:07.437Z,7.67
2019-04-03T07:35:35.369Z,6.53
2019-04-03T07:38:03.312Z,6.83
2019-04-03T07:40:31.251Z,6.47
2019-04-03T07:42:59.655Z,7.77
2019-04-03T07:45:27.690Z,7.47
2019-04-03T07:47:55.726Z,6.07
2019-04-03T07:50:23.603Z,6.53
2019-04-03T07:52:51.864Z,7.37
2019-04-03T07:55:19.771Z,8.37
2019-04-03T07:57:47.802Z,6.60
2019-04-03T08:00:16.353Z,8.83
2019-04-03T08:02:48.003Z,6.90
2019-04-03T08:05:14.259Z,6.17
2019-04-03T08:07:42.626Z,6.83
2019-04-03T08:10:11.310Z,6.97
2019-04-03T08:12:39.454Z,6.30
2019-04-03T08:15:09.258Z,5.23
2019-04-03T08:17:37.274Z,5.70
2019-04-03T08:20:06.218Z,5.40
2019-04-03T08:22:34.225Z,5.07
2019-04-03T08:25:02.307Z,4.97
2019-04-03T08:27:30.283Z,5.93
2019-04-03T08:29:58.416Z,5.07
2019-04-03T08:32:26.545Z,4.70
2019-04-03T08:34:54.714Z,6.40
2019-04-03T08:37:29.487Z,5.70
2019-04-03T08:39:53.190Z,5.87
2019-04-03T08:42:21.342Z,4.90
2019-04-03T08:44:49.341Z,4.07
2019-04-03T08:47:17.228Z,4.90
2019-04-03T08:49:45.280Z,5.67
2019-04-03T08:52:14.805Z,5.23
2019-04-03T08:54:42.959Z,4.90
2019-04-03T08:57:10.877Z,7.33
2019-04-03T08:59:39.113Z,5.37
2019-04-03T09:02:08.194Z,5.10
2019-04-03T09:04:37.857Z,5.30
2019-04-03T09:07:05.763Z,5.50
2019-04-03T09:09:35.303Z,7.07
2019-04-03T09:12:06.841Z,4.80
2019-04-03T09:14:34.262Z,6.40
2019-04-03T09:17:02.801Z,5.17
2019-04-03T09:19:31.467Z,6.50
2019-04-03T09:21:59.606Z,5.33
2019-04-03T09:24:29.648Z,4.70
2019-04-03T09:26:57.490Z,4.57
2019-04-03T09:29:25.378Z,6.50
2019-04-03T09:31:56.236Z,7.47
2019-04-03T09:34:24.697Z,5.33
2019-04-03T09:36:52.583Z,6.53
2019-04-03T09:39:20.621Z,6.62
2019-04-03T09:41:48.812Z,5.97
2019-04-03T09:44:18.362Z,5.30
2019-04-03T09:46:46.300Z,9.60
2019-04-03T09:49:14.232Z,4.87
2019-04-03T09:51:42.805Z,6.47
2019-04-03T09:54:11.754Z,3.98
2019-04-03T09:56:54.884Z,5.15
2019-04-03T09:59:09.939Z,3.22
2019-04-03T10:01:37.823Z,3.40
2019-04-03T10:04:05.973Z,3.00
2019-04-03T10:06:33.941Z,4.12
2019-04-03T10:09:03.163Z,4.37
2019-04-03T10:11:32.870Z,4.75
2019-04-03T10:14:00.932Z,3.90
2019-04-03T10:16:28.977Z,3.83
2019-04-03T10:18:57.088Z,2.92
2019-04-03T10:21:25.341Z,2.92
2019-04-03T10:23:53.281Z,3.17
2019-04-03T10:26:21.335Z,5.20
2019-04-03T10:28:49.358Z,6.42
2019-04-03T10:31:17.483Z,5.70
2019-04-03T10:33:45.489Z,5.92
2019-04-03T10:36:13.408Z,5.12
2019-04-03T10:38:42.411Z,5.20
2019-04-03T10:41:11.498Z,3.55
2019-04-03T10:43:39.971Z,3.45
2019-04-03T10:46:08.135Z,3.22
2019-04-03T10:48:36.160Z,2.22
2019-04-03T10:51:04.805Z,3.25
2019-04-03T10:53:33.113Z,7.80
2019-04-03T10:56:01.180Z,3.72
2019-04-03T10:58:29.112Z,1.62
2019-04-03T11:00:59.062Z,2.93
2019-04-03T11:03:26.946Z,3.02
2019-04-03T11:05:54.970Z,1.50
2019-04-03T11:08:22.926Z,3.37
2019-04-03T11:10:51.331Z,2.33
2019-04-03T11:13:19.375Z,4.23
2019-04-03T11:15:47.278Z,2.10
2019-04-03T11:18:15.243Z,1.75
2019-04-03T11:20:43.577Z,1.27
2019-04-03T11:23:11.578Z,2.30
2019-04-03T11:25:41.916Z,2.10
2019-04-03T11:28:09.608Z,1.00
2019-04-03T11:30:40.093Z,1.80
2019-04-03T11:33:08.220Z,3.13
2019-04-03T11:35:36.286Z,1.00
2019-04-03T11:38:13.093Z,1.10
2019-04-03T11:40:34.566Z,1.00
2019-04-03T11:43:03.059Z,1.20
2019-04-03T11:45:31.577Z,1.60
2019-04-03T11:47:59.578Z,2.90
2019-04-03T11:50:28.365Z,3.63
2019-04-03T11:52:56.447Z,1.70
2019-04-03T11:55:25.730Z,1.50
2019-04-03T11:57:53.962Z,1.20
2019-04-03T12:00:26.671Z,1.43
2019-04-03T12:02:55.028Z,1.90
2019-04-03T12:05:23.054Z,1.40
2019-04-03T12:07:51.293Z,1.63
2019-04-03T12:10:19.330Z,1.60
2019-04-03T12:12:49.387Z,1.00
2019-04-03T12:15:21.390Z,1.10
2019-04-03T12:17:48.977Z,3.62
2019-04-03T12:20:22.086Z,1.40
2019-04-03T12:22:54.533Z,1.63
2019-04-03T12:25:23.160Z,0.80
2019-04-03T12:27:51.349Z,1.80
2019-04-03T12:30:20.451Z,1.03
2019-04-03T12:32:50.304Z,1.30
2019-04-03T12:35:31.980Z,1.00
2019-04-03T12:38:02.760Z,1.32
2019-04-03T12:40:32.740Z,0.83
2019-04-03T12:43:01.058Z,1.60
2019-04-03T12:45:29.210Z,1.00
2019-04-03T12:47:57.763Z,1.33
2019-04-03T12:50:27.581Z,2.62
2019-04-03T12:52:56.173Z,2.67
2019-04-03T12:55:25.582Z,2.02
2019-04-03T12:57:54.995Z,1.15
2019-04-03T13:00:24.762Z,2.75
2019-04-03T13:02:54.384Z,1.32
2019-04-03T13:05:22.492Z,1.92
2019-04-03T13:07:51.081Z,2.50
2019-04-03T13:10:20.468Z,1.47
2019-04-03T13:12:49.228Z,1.25
2019-04-03T13:15:17.434Z,1.60
2019-04-03T13:17:46.479Z,1.30
2019-04-03T13:20:15.611Z,1.10
2019-04-03T13:22:43.966Z,1.72
2019-04-03T13:25:12.872Z,1.25
2019-04-03T13:27:41.085Z,1.25
2019-04-03T13:30:12.442Z,1.77
2019-04-03T13:32:39.995Z,2.95
2019-04-03T13:35:08.417Z,1.42
2019-04-03T13:37:38.762Z,3.37
2019-04-03T13:40:08.194Z,3.03
2019-04-03T13:42:36.572Z,2.40
2019-04-03T13:45:06.161Z,1.00
2019-04-03T13:47:34.994Z,1.77
2019-04-03T13:50:04.021Z,1.30
2019-04-03T13:52:40.918Z,1.20
2019-04-03T13:55:03.488Z,1.90
2019-04-03T13:57:31.780Z,2.60
2019-04-03T14:00:03.686Z,1.63
2019-04-03T14:02:31.300Z,2.60
2019-04-03T14:04:59.649Z,2.10
2019-04-03T14:07:30.224Z,1.57
2019-04-03T14:09:57.994Z,2.07
2019-04-03T14:12:27.157Z,3.30
2019-04-03T14:14:55.126Z,1.60
2019-04-03T14:17:23.447Z,2.40
2019-04-03T14:19:52.736Z,2.12
2019-04-03T14:22:21.470Z,2.12
2019-04-03T14:24:52.603Z,3.80
2019-04-03T14:27:24.552Z,3.67
2019-04-03T14:29:50.586Z,1.82
2019-04-03T14:32:21.198Z,1.83
2019-04-03T14:34:49.207Z,1.55
2019-04-03T14:37:17.443Z,1.92
2019-04-03T14:39:45.632Z,2.25
2019-04-03T14:42:14.391Z,2.27
2019-04-03T14:44:45.575Z,3.43
2019-04-03T14:47:12.475Z,2.30
2019-04-03T14:49:40.697Z,2.45
2019-04-03T14:52:09.098Z,1.40
2019-04-03T14:54:37.303Z,2.77
2019-04-03T14:57:13.161Z,5.23
2019-04-03T14:59:35.555Z,3.77
2019-04-03T15:02:04.240Z,2.27
2019-04-03T15:04:36.470Z,3.07
2019-04-03T15:07:08.602Z,1.90
2019-04-03T15:09:34.213Z,2.87
2019-04-03T15:12:02.685Z,3.22
2019-04-03T15:14:30.870Z,4.15
2019-04-03T15:16:59.160Z,1.87
2019-04-03T15:19:29.894Z,2.83
2019-04-03T15:22:01.476Z,2.30
2019-04-03T15:24:28.124Z,2.45
2019-04-03T15:26:56.534Z,2.35
2019-04-03T15:29:26.646Z,1.92
2019-04-03T15:31:57.149Z,3.77
2019-04-03T15:34:27.644Z,3.42
2019-04-03T15:36:57.187Z,3.75
2019-04-03T15:39:25.414Z,3.92
2019-04-03T15:41:54.093Z,5.55
2019-04-03T15:44:22.410Z,4.80
2019-04-03T15:46:52.317Z,3.62
2019-04-03T15:49:21.230Z,3.25
2019-04-03T15:51:49.707Z,5.80
2019-04-03T15:54:17.787Z,3.05
2019-04-03T15:56:46.565Z,4.20
2019-04-03T15:59:15.557Z,4.65
2019-04-03T16:01:44.539Z,4.05
2019-04-03T16:04:13.509Z,3.95
2019-04-03T16:06:41.806Z,4.35
2019-04-03T16:09:11.346Z,5.55
2019-04-03T16:11:40.194Z,5.40
2019-04-03T16:14:08.643Z,5.90
2019-04-03T16:16:36.970Z,3.83
2019-04-03T16:19:05.147Z,4.15
2019-04-03T16:21:34.203Z,4.50
2019-04-03T16:24:02.754Z,4.45
2019-04-03T16:26:31.565Z,5.08
2019-04-03T16:28:59.783Z,9.00
2019-04-03T16:31:28.414Z,9.33
2019-04-03T16:33:56.403Z,7.65
2019-04-03T16:36:24.528Z,5.50
2019-04-03T16:38:53.975Z,6.10
2019-04-03T16:41:22.211Z,8.00
2019-04-03T16:43:50.404Z,6.30
2019-04-03T16:46:18.589Z,7.72
2019-04-03T16:48:49.079Z,7.95
2019-04-03T16:51:18.162Z,8.70
2019-04-03T16:53:46.415Z,6.65
2019-04-03T16:56:16.005Z,5.37
2019-04-03T16:58:45.118Z,8.45
2019-04-03T17:01:14.445Z,7.92
2019-04-03T17:03:43.355Z,7.65
2019-04-03T17:06:13.202Z,8.30
2019-04-03T17:08:42.309Z,8.05
2019-04-03T17:11:12.068Z,7.35
2019-04-03T17:13:41.131Z,7.15
2019-04-03T17:16:09.570Z,6.72
2019-04-03T17:18:37.921Z,7.40
2019-04-03T17:21:06.335Z,8.75
2019-04-03T17:23:34.855Z,6.67
2019-04-03T17:26:03.843Z,7.58
2019-04-03T17:28:32.467Z,7.10
2019-04-03T17:31:00.903Z,8.58
2019-04-03T17:33:29.234Z,9.88
2019-04-03T17:35:57.487Z,9.28
2019-04-03T17:38:26.170Z,9.30
2019-04-03T17:41:01.014Z,9.18
2019-04-03T17:43:29.402Z,11.97
2019-04-03T17:45:57.880Z,9.20
2019-04-03T17:48:26.034Z,9.90
2019-04-03T17:50:54.210Z,9.48
2019-04-03T17:53:22.667Z,8.90
2019-04-03T17:55:50.827Z,8.38
2019-04-03T17:58:19.891Z,7.55
2019-04-03T18:00:51.769Z,9.58
2019-04-03T18:03:19.616Z,8.75
2019-04-03T18:05:48.400Z,3.65
2019-04-03T18:08:16.699Z,9.85
2019-04-03T18:10:45.069Z,4.28
2019-04-03T18:13:13.611Z,2.67
2019-04-03T18:15:41.747Z,2.83
2019-04-03T18:18:10.186Z,5.33
2019-04-03T18:20:38.164Z,4.47
2019-04-03T18:23:06.409Z,3.67
2019-04-03T18:25:34.486Z,3.33
2019-04-03T18:28:04.798Z,3.55
2019-04-03T18:30:35.504Z,3.10
2019-04-03T18:33:05.796Z,3.27
2019-04-03T18:35:35.440Z,4.37
2019-04-03T18:38:07.574Z,2.80
2019-04-03T18:40:34.692Z,4.30
2019-04-03T18:43:02.882Z,3.02
2019-04-03T18:45:31.063Z,2.72
2019-04-03T18:48:01.186Z,2.08
2019-04-03T18:50:29.666Z,2.22
2019-04-03T18:53:00.291Z,3.05
2019-04-03T18:55:28.580Z,3.00
2019-04-03T18:57:56.695Z,2.70
2019-04-03T19:00:24.917Z,3.47
2019-04-03T19:02:53.111Z,2.30
2019-04-03T19:05:21.578Z,3.17
2019-04-03T19:07:50.705Z,4.12
2019-04-03T19:10:19.146Z,2.75
2019-04-03T19:12:50.499Z,2.95
2019-04-03T19:15:18.793Z,3.83
2019-04-03T19:17:59.052Z,3.80
2019-04-03T19:20:17.610Z,3.67
2019-04-03T19:22:46.365Z,5.28
2019-04-03T19:25:14.733Z,6.37
2019-04-03T19:27:42.985Z,4.65
2019-04-03T19:30:11.405Z,3.25
2019-04-03T19:32:42.758Z,3.52
2019-04-03T19:35:10.232Z,5.42
2019-04-03T19:37:39.061Z,4.95
2019-04-03T19:40:09.695Z,3.72
2019-04-03T19:42:38.290Z,4.75
2019-04-03T19:45:08.071Z,7.08
2019-04-03T19:47:36.623Z,10.18
2019-04-03T19:50:06.665Z,8.65
2019-04-03T19:52:37.209Z,7.97
2019-04-03T19:55:05.512Z,12.65
2019-04-03T19:57:33.780Z,10.60
2019-04-03T20:00:03.167Z,11.25
2019-04-03T20:02:32.135Z,11.30
2019-04-03T20:05:00.384Z,14.20
2019-04-03T20:07:28.847Z,13.85
2019-04-03T20:09:57.487Z,12.78
2019-04-03T20:12:26.099Z,12.53
2019-04-03T20:14:58.344Z,14.87
2019-04-03T20:17:24.989Z,12.55
2019-04-03T20:19:53.221Z,16.77
2019-04-03T20:22:21.403Z,13.50
2019-04-03T20:24:59.383Z,15.93
2019-04-03T20:27:19.753Z,15.03
2019-04-03T20:29:47.964Z,17.32
2019-04-03T20:32:16.056Z,16.10
2019-04-03T20:34:45.101Z,19.00
2019-04-03T20:37:13.415Z,17.73
2019-04-03T20:39:41.517Z,18.75
2019-04-03T20:42:20.804Z,17.77
2019-04-03T20:44:49.263Z,17.17
2019-04-03T20:47:17.304Z,18.10
2019-04-03T20:49:45.505Z,17.95
2019-04-03T20:52:13.683Z,16.17
2019-04-03T20:54:42.026Z,17.10
2019-04-03T20:57:13.305Z,17.77
2019-04-03T20:59:42.641Z,17.77
2019-04-03T21:02:10.443Z,13.53
2019-04-03T21:04:38.681Z,14.87
2019-04-03T21:07:06.836Z,14.43
2019-04-03T21:09:35.073Z,11.68
2019-04-03T21:12:05.006Z,8.60
2019-04-03T21:14:33.010Z,7.70
2019-04-03T21:17:00.974Z,7.67
2019-04-03T21:19:28.953Z,5.30
2019-04-03T21:21:57.693Z,6.50
2019-04-03T21:24:26.973Z,5.42
2019-04-03T21:26:55.761Z,8.45
2019-04-03T21:29:23.888Z,6.78
2019-04-03T21:31:52.042Z,3.83
2019-04-03T21:34:20.118Z,4.85
2019-04-03T21:36:48.163Z,4.92
2019-04-03T21:39:16.175Z,6.33
2019-04-03T21:41:44.213Z,7.03
2019-04-03T21:44:12.175Z,9.88
2019-04-03T21:46:40.459Z,12.35
2019-04-03T21:49:12.120Z,15.18
2019-04-03T21:51:40.239Z,16.32
2019-04-03T21:54:08.350Z,16.93
2019-04-03T21:56:36.475Z,16.95
2019-04-03T21:59:04.627Z,17.40
2019-04-03T22:01:32.868Z,16.30
2019-04-03T22:04:01.077Z,12.65
2019-04-03T22:06:29.243Z,14.35
2019-04-03T22:08:59.651Z,12.18
2019-04-03T22:11:27.326Z,12.63
2019-04-03T22:13:55.311Z,14.13
2019-04-03T22:16:24.208Z,10.98
2019-04-03T22:18:52.947Z,11.55
2019-04-03T22:21:22.273Z,13.35
2019-04-03T22:23:50.261Z,13.85
2019-04-03T22:26:18.155Z,14.65
2019-04-03T22:28:47.152Z,11.45
2019-04-03T22:31:15.159Z,13.50
2019-04-03T22:33:43.139Z,14.10
2019-04-03T22:36:11.097Z,12.85
2019-04-03T22:38:39.090Z,8.98
2019-04-03T22:41:07.042Z,12.00
2019-04-03T22:43:35.013Z,11.60
2019-04-03T22:46:03.103Z,12.65
2019-04-03T22:48:31.040Z,11.80
2019-04-03T22:50:58.988Z,10.10
2019-04-03T22:53:26.925Z,6.87
2019-04-03T22:55:54.960Z,7.08
2019-04-03T22:58:23.037Z,7.55
2019-04-03T23:00:51.092Z,11.48
2019-04-03T23:03:19.073Z,8.23
2019-04-03T23:05:48.010Z,5.95
2019-04-03T23:08:17.596Z,5.92
2019-04-03T23:10:45.766Z,5.70
2019-04-03T23:13:13.747Z,5.22
2019-04-03T23:15:41.771Z,5.95
2019-04-03T23:18:09.776Z,6.00
2019-04-03T23:20:37.695Z,5.85
2019-04-03T23:23:08.896Z,6.70
2019-04-03T23:25:36.846Z,7.90
2019-04-03T23:28:05.224Z,8.53
2019-04-03T23:30:33.157Z,10.13
2019-04-03T23:33:02.049Z,11.73
2019-04-03T23:35:30.968Z,12.88
2019-04-03T23:37:58.937Z,12.98
2019-04-03T23:40:26.890Z,13.95
2019-04-03T23:42:54.964Z,14.58
2019-04-03T23:45:25.227Z,14.90
2019-04-03T23:47:53.215Z,13.95
2019-04-03T23:50:21.919Z,15.63
2019-04-03T23:52:50.444Z,15.10
2019-04-03T23:55:18.369Z,16.15
2019-04-03T23:57:46.247Z,14.45
